createdAt,value
2023-05-05T00:07:59.461Z,56.34
2023-05-05T00:18:03.117Z,56.81
2023-05-05T00:28:06.821Z,57.29
2023-05-05T00:38:10.372Z,57.55
2023-05-05T00:48:16.118Z,57.94
2023-05-05T00:58:19.893Z,58.27
2023-05-05T01:08:27.067Z,58.68
2023-05-05T01:18:34.831Z,59.09
2023-05-05T01:28:53.184Z,59.43
2023-05-05T01:38:57.628Z,60.20
2023-05-05T01:49:02.325Z,60.78
2023-05-05T01:59:06.544Z,61.05
2023-05-05T02:09:13.184Z,61.46
2023-05-05T02:19:19.241Z,62.08
2023-05-05T02:29:22.688Z,62.92
2023-05-05T02:39:30.759Z,63.20
2023-05-05T02:49:34.316Z,63.41
2023-05-05T02:59:49.254Z,63.86
2023-05-05T03:09:55.870Z,64.37
2023-05-05T03:20:02.287Z,64.47
2023-05-05T03:30:09.165Z,64.67
2023-05-05T03:40:14.119Z,65.17
2023-05-05T03:50:17.128Z,65.29
2023-05-05T04:00:19.879Z,65.54
2023-05-05T04:10:24.129Z,65.55
2023-05-05T04:20:27.776Z,65.58
2023-05-05T04:30:31.400Z,65.60
2023-05-05T04:40:38.999Z,65.93
2023-05-05T04:50:42.738Z,64.79
2023-05-05T05:00:47.168Z,62.90
2023-05-05T05:10:51.521Z,62.26
2023-05-05T05:20:55.667Z,61.66
2023-05-05T05:30:59.984Z,60.91
2023-05-05T05:41:06.186Z,59.96
2023-05-05T05:51:09.778Z,58.78
2023-05-05T06:01:13.585Z,57.04
2023-05-05T06:11:17.209Z,56.24
2023-05-05T06:21:21.117Z,54.68
2023-05-05T06:31:25.346Z,52.69
2023-05-05T06:41:29.375Z,50.96
2023-05-05T06:51:33.103Z,48.39
2023-05-05T07:01:36.720Z,47.30
2023-05-05T07:11:40.425Z,45.99
2023-05-05T07:21:44.122Z,44.49
2023-05-05T07:31:47.834Z,43.75
2023-05-05T07:41:51.743Z,42.00
2023-05-05T07:51:56.047Z,41.12
2023-05-05T08:01:59.610Z,41.42
2023-05-05T08:12:03.918Z,41.17
2023-05-05T08:22:07.618Z,39.82
2023-05-05T08:32:11.524Z,38.74
2023-05-05T08:42:25.423Z,38.86
2023-05-05T08:52:38.055Z,37.25
2023-05-05T09:02:42.456Z,37.59
2023-05-05T09:12:46.601Z,36.07
2023-05-05T09:22:50.559Z,34.73
2023-05-05T09:32:55.813Z,35.66
2023-05-05T09:43:01.965Z,35.60
2023-05-05T09:53:06.677Z,35.83
2023-05-05T10:03:10.397Z,35.23
2023-05-05T10:13:15.471Z,34.51
2023-05-05T10:23:22.523Z,34.68
2023-05-05T10:33:32.243Z,34.48
2023-05-05T10:43:37.443Z,33.86
2023-05-05T10:53:44.474Z,34.14
2023-05-05T11:03:49.416Z,34.35
2023-05-05T11:14:25.483Z,34.28
2023-05-05T11:24:29.246Z,34.33
2023-05-05T11:34:33.057Z,34.28
2023-05-05T11:44:37.728Z,33.85
2023-05-05T11:54:47.280Z,33.94
2023-05-05T12:04:52.399Z,32.86
2023-05-05T12:14:56.180Z,33.42
2023-05-05T12:25:02.052Z,32.40
2023-05-05T12:35:08.090Z,32.28
2023-05-05T12:45:17.614Z,32.28
2023-05-05T12:55:21.480Z,32.48
2023-05-05T13:05:31.273Z,32.22
2023-05-05T13:15:36.044Z,32.40
2023-05-05T13:25:39.948Z,32.07
2023-05-05T13:35:43.987Z,31.56
2023-05-05T13:45:47.666Z,31.06
2023-05-05T13:55:51.386Z,31.33
2023-05-05T14:05:55.050Z,31.76
2023-05-05T14:15:58.834Z,30.86
2023-05-05T14:26:03.040Z,31.17
2023-05-05T14:36:07.007Z,31.46
2023-05-05T14:46:11.631Z,31.70
2023-05-05T14:56:15.599Z,31.89
2023-05-05T15:06:20.104Z,31.99
2023-05-05T15:16:23.825Z,31.82
2023-05-05T15:26:30.707Z,31.45
2023-05-05T15:36:34.116Z,31.16
2023-05-05T15:56:42.491Z,31.75
2023-05-05T16:06:46.547Z,31.89
2023-05-05T16:16:50.219Z,32.09
2023-05-05T16:26:54.328Z,32.46
2023-05-05T16:36:58.303Z,33.04
2023-05-05T16:47:04.168Z,33.50
2023-05-05T16:57:12.289Z,33.84
2023-05-05T17:07:16.018Z,34.02
2023-05-05T17:17:20.297Z,34.52
2023-05-05T17:27:24.521Z,34.60
2023-05-05T17:37:28.825Z,35.06
2023-05-05T17:47:32.776Z,35.65
2023-05-05T17:57:36.655Z,36.07
2023-05-05T18:07:40.769Z,36.70
2023-05-05T18:17:44.544Z,37.29
2023-05-05T18:27:51.722Z,38.12
2023-05-05T18:37:55.721Z,38.72
2023-05-05T18:47:59.524Z,39.79
2023-05-05T18:58:03.277Z,40.41
2023-05-05T19:08:10.731Z,41.12
2023-05-05T19:18:14.359Z,41.78
2023-05-05T19:28:18.344Z,42.42
2023-05-05T19:38:22.191Z,43.06
2023-05-05T19:48:26.341Z,43.63
2023-05-05T19:58:30.981Z,43.99
2023-05-05T20:08:34.549Z,44.57
2023-05-05T20:18:38.037Z,45.02
2023-05-05T20:28:44.768Z,45.53
2023-05-05T20:38:49.422Z,45.81
2023-05-05T20:48:53.336Z,46.15
2023-05-05T20:58:56.634Z,46.87
2023-05-05T21:09:04.950Z,47.66
2023-05-05T21:19:08.871Z,48.19
2023-05-05T21:29:13.158Z,48.86
2023-05-05T21:39:16.788Z,49.21
2023-05-05T21:49:20.308Z,50.07
2023-05-05T21:59:27.761Z,51.01
2023-05-05T22:09:31.926Z,51.36
2023-05-05T22:19:36.259Z,51.86
2023-05-05T22:29:40.500Z,52.31
2023-05-05T22:39:44.355Z,53.07
2023-05-05T22:49:48.171Z,53.99
2023-05-05T22:59:52.413Z,55.07
2023-05-05T23:09:56.142Z,55.57
2023-05-05T23:20:01.927Z,56.12
2023-05-05T23:30:07.278Z,56.61
2023-05-05T23:40:10.986Z,57.17
2023-05-05T23:50:14.543Z,57.70
